sensor_id;sensor_type;location;lat;lon;timestamp;temperature;humidity
17795;DHT22;9021;50.882;4.326;2022-11-18T00:00:48;11.00;99.90
17795;DHT22;9021;50.882;4.326;2022-11-18T00:03:14;11.20;99.90
17795;DHT22;9021;50.882;4.326;2022-11-18T00:05:40;11.20;99.90
17795;DHT22;9021;50.882;4.326;2022-11-18T00:08:06;11.20;99.90
17795;DHT22;9021;50.882;4.326;2022-11-18T00:10:31;11.10;99.90
17795;DHT22;9021;50.882;4.326;2022-11-18T00:12:57;11.10;99.90
17795;DHT22;9021;50.882;4.326;2022-11-18T00:15:41;11.10;99.90
17795;DHT22;9021;50.882;4.326;2022-11-18T00:18:07;11.10;99.90
17795;DHT22;9021;50.882;4.326;2022-11-18T00:20:33;11.10;99.90
17795;DHT22;9021;50.882;4.326;2022-11-18T00:22:59;11.00;99.90
17795;DHT22;9021;50.882;4.326;2022-11-18T00:25:25;11.00;99.90
17795;DHT22;9021;50.882;4.326;2022-11-18T00:27:50;11.00;99.90
17795;DHT22;9021;50.882;4.326;2022-11-18T00:30:16;11.00;99.90
17795;DHT22;9021;50.882;4.326;2022-11-18T00:32:42;11.10;99.90
17795;DHT22;9021;50.882;4.326;2022-11-18T00:35:09;11.10;99.90
17795;DHT22;9021;50.882;4.326;2022-11-18T00:37:35;11.20;99.90
17795;DHT22;9021;50.882;4.326;2022-11-18T00:40:00;11.20;99.90
17795;DHT22;9021;50.882;4.326;2022-11-18T00:42:26;11.30;99.90
17795;DHT22;9021;50.882;4.326;2022-11-18T00:45:10;11.40;99.90
17795;DHT22;9021;50.882;4.326;2022-11-18T00:47:39;11.40;99.90
17795;DHT22;9021;50.882;4.326;2022-11-18T00:50:05;11.30;99.90
17795;DHT22;9021;50.882;4.326;2022-11-18T00:52:33;11.40;99.90
17795;DHT22;9021;50.882;4.326;2022-11-18T00:54:59;11.40;99.90
17795;DHT22;9021;50.882;4.326;2022-11-18T00:57:24;11.40;99.90
17795;DHT22;9021;50.882;4.326;2022-11-18T00:59:50;11.40;99.90
17795;DHT22;9021;50.882;4.326;2022-11-18T01:02:15;11.20;99.90
17795;DHT22;9021;50.882;4.326;2022-11-18T01:04:41;11.30;99.90
17795;DHT22;9021;50.882;4.326;2022-11-18T01:07:07;11.20;99.90
17795;DHT22;9021;50.882;4.326;2022-11-18T01:09:32;11.30;99.90
17795;DHT22;9021;50.882;4.326;2022-11-18T01:11:58;11.30;99.90
17795;DHT22;9021;50.882;4.326;2022-11-18T01:14:42;11.20;99.90
17795;DHT22;9021;50.882;4.326;2022-11-18T01:17:08;11.20;99.90
17795;DHT22;9021;50.882;4.326;2022-11-18T01:19:33;11.20;99.90
17795;DHT22;9021;50.882;4.326;2022-11-18T01:21:59;11.00;99.90
17795;DHT22;9021;50.882;4.326;2022-11-18T01:24:29;10.90;99.90
17795;DHT22;9021;50.882;4.326;2022-11-18T01:26:55;10.90;99.90
17795;DHT22;9021;50.882;4.326;2022-11-18T01:29:20;11.00;99.90
17795;DHT22;9021;50.882;4.326;2022-11-18T01:31:46;10.90;99.90
17795;DHT22;9021;50.882;4.326;2022-11-18T01:34:12;10.90;99.90
17795;DHT22;9021;50.882;4.326;2022-11-18T01:36:37;11.00;99.90
17795;DHT22;9021;50.882;4.326;2022-11-18T01:39:03;10.90;99.90
17795;DHT22;9021;50.882;4.326;2022-11-18T01:41:28;10.80;99.90
17795;DHT22;9021;50.882;4.326;2022-11-18T01:46:24;10.90;99.90
17795;DHT22;9021;50.882;4.326;2022-11-18T01:48:58;10.90;99.90
17795;DHT22;9021;50.882;4.326;2022-11-18T01:51:28;10.90;99.90
17795;DHT22;9021;50.882;4.326;2022-11-18T01:54:05;10.90;99.90
17795;DHT22;9021;50.882;4.326;2022-11-18T01:56:38;10.80;99.90
17795;DHT22;9021;50.882;4.326;2022-11-18T01:59:10;10.80;99.90
17795;DHT22;9021;50.882;4.326;2022-11-18T02:01:38;10.90;99.90
17795;DHT22;9021;50.882;4.326;2022-11-18T02:04:05;10.80;99.90
17795;DHT22;9021;50.882;4.326;2022-11-18T02:06:32;10.90;99.90
17795;DHT22;9021;50.882;4.326;2022-11-18T02:08:59;10.90;99.90
17795;DHT22;9021;50.882;4.326;2022-11-18T02:11:25;10.90;99.90
17795;DHT22;9021;50.882;4.326;2022-11-18T02:14:10;10.70;99.90
17795;DHT22;9021;50.882;4.326;2022-11-18T02:24:40;10.90;99.90
17795;DHT22;9021;50.882;4.326;2022-11-18T02:29:59;10.80;99.90
17795;DHT22;9021;50.882;4.326;2022-11-18T02:32:40;10.80;99.90
17795;DHT22;9021;50.882;4.326;2022-11-18T02:35:27;10.80;99.90
17795;DHT22;9021;50.882;4.326;2022-11-18T02:37:59;10.80;99.90
17795;DHT22;9021;50.882;4.326;2022-11-18T02:40:32;10.70;99.90
17795;DHT22;9021;50.882;4.326;2022-11-18T02:43:15;10.70;99.90
17795;DHT22;9021;50.882;4.326;2022-11-18T02:45:46;10.60;99.90
17795;DHT22;9021;50.882;4.326;2022-11-18T02:48:13;10.60;99.90
17795;DHT22;9021;50.882;4.326;2022-11-18T02:50:41;10.40;99.90
17795;DHT22;9021;50.882;4.326;2022-11-18T02:53:09;10.40;99.90
17795;DHT22;9021;50.882;4.326;2022-11-18T02:55:39;10.40;99.90
17795;DHT22;9021;50.882;4.326;2022-11-18T02:58:05;10.40;99.90
17795;DHT22;9021;50.882;4.326;2022-11-18T03:00:32;10.40;99.90
17795;DHT22;9021;50.882;4.326;2022-11-18T03:02:58;10.50;99.90
17795;DHT22;9021;50.882;4.326;2022-11-18T03:05:45;10.50;99.90
17795;DHT22;9021;50.882;4.326;2022-11-18T03:08:16;10.40;99.90
17795;DHT22;9021;50.882;4.326;2022-11-18T03:11:13;10.30;99.90
17795;DHT22;9021;50.882;4.326;2022-11-18T03:14:05;10.50;99.90
17795;DHT22;9021;50.882;4.326;2022-11-18T03:16:48;10.40;99.90
17795;DHT22;9021;50.882;4.326;2022-11-18T03:19:33;10.30;99.90
17795;DHT22;9021;50.882;4.326;2022-11-18T03:24:44;10.20;99.90
17795;DHT22;9021;50.882;4.326;2022-11-18T03:27:17;10.20;99.90
17795;DHT22;9021;50.882;4.326;2022-11-18T03:29:51;10.10;99.90
17795;DHT22;9021;50.882;4.326;2022-11-18T03:32:26;10.20;99.90
17795;DHT22;9021;50.882;4.326;2022-11-18T03:35:17;10.00;99.90
17795;DHT22;9021;50.882;4.326;2022-11-18T03:37:44;10.00;99.90
17795;DHT22;9021;50.882;4.326;2022-11-18T03:40:19;10.00;99.90
17795;DHT22;9021;50.882;4.326;2022-11-18T03:42:50;10.30;99.90
17795;DHT22;9021;50.882;4.326;2022-11-18T03:45:38;10.20;99.90
17795;DHT22;9021;50.882;4.326;2022-11-18T03:50:43;10.20;99.90
17795;DHT22;9021;50.882;4.326;2022-11-18T03:53:11;10.20;99.90
17795;DHT22;9021;50.882;4.326;2022-11-18T03:55:43;10.10;99.90
17795;DHT22;9021;50.882;4.326;2022-11-18T03:58:15;10.20;99.90
17795;DHT22;9021;50.882;4.326;2022-11-18T04:00:47;10.10;99.90
17795;DHT22;9021;50.882;4.326;2022-11-18T04:03:15;10.20;99.90
17795;DHT22;9021;50.882;4.326;2022-11-18T04:05:42;10.20;99.90
17795;DHT22;9021;50.882;4.326;2022-11-18T04:08:20;10.30;99.90
17795;DHT22;9021;50.882;4.326;2022-11-18T04:11:03;10.10;99.90
17795;DHT22;9021;50.882;4.326;2022-11-18T04:13:35;10.00;99.90
17795;DHT22;9021;50.882;4.326;2022-11-18T04:16:01;10.00;99.90
17795;DHT22;9021;50.882;4.326;2022-11-18T04:18:27;10.00;99.90
17795;DHT22;9021;50.882;4.326;2022-11-18T04:20:53;10.00;99.90
17795;DHT22;9021;50.882;4.326;2022-11-18T04:23:18;10.00;99.90
17795;DHT22;9021;50.882;4.326;2022-11-18T04:25:44;10.10;99.90
17795;DHT22;9021;50.882;4.326;2022-11-18T04:28:10;10.00;99.90
17795;DHT22;9021;50.882;4.326;2022-11-18T04:30:36;9.90;99.90
17795;DHT22;9021;50.882;4.326;2022-11-18T04:33:01;9.90;99.90
17795;DHT22;9021;50.882;4.326;2022-11-18T04:35:28;9.90;99.90
17795;DHT22;9021;50.882;4.326;2022-11-18T04:37:54;9.90;99.90
17795;DHT22;9021;50.882;4.326;2022-11-18T04:40:19;9.90;99.90
17795;DHT22;9021;50.882;4.326;2022-11-18T04:42:45;9.90;99.90
17795;DHT22;9021;50.882;4.326;2022-11-18T04:45:11;9.90;99.90
17795;DHT22;9021;50.882;4.326;2022-11-18T04:47:37;9.90;99.90
17795;DHT22;9021;50.882;4.326;2022-11-18T04:50:03;10.00;99.90
17795;DHT22;9021;50.882;4.326;2022-11-18T04:52:29;9.90;99.90
17795;DHT22;9021;50.882;4.326;2022-11-18T04:54:54;9.80;99.90
17795;DHT22;9021;50.882;4.326;2022-11-18T04:57:20;9.60;99.90
17795;DHT22;9021;50.882;4.326;2022-11-18T04:59:46;9.70;99.90
17795;DHT22;9021;50.882;4.326;2022-11-18T05:02:12;9.70;99.90
17795;DHT22;9021;50.882;4.326;2022-11-18T05:04:38;9.60;99.90
17795;DHT22;9021;50.882;4.326;2022-11-18T05:07:04;9.70;99.90
17795;DHT22;9021;50.882;4.326;2022-11-18T05:09:32;9.60;99.90
17795;DHT22;9021;50.882;4.326;2022-11-18T05:11:58;9.70;99.90
17795;DHT22;9021;50.882;4.326;2022-11-18T05:14:53;9.70;99.90
17795;DHT22;9021;50.882;4.326;2022-11-18T05:17:19;9.80;99.90
17795;DHT22;9021;50.882;4.326;2022-11-18T05:19:44;9.60;99.90
17795;DHT22;9021;50.882;4.326;2022-11-18T05:22:10;9.50;99.90
17795;DHT22;9021;50.882;4.326;2022-11-18T05:24:36;9.60;99.90
17795;DHT22;9021;50.882;4.326;2022-11-18T05:27:01;9.60;99.90
17795;DHT22;9021;50.882;4.326;2022-11-18T05:29:27;9.60;99.90
17795;DHT22;9021;50.882;4.326;2022-11-18T05:31:52;9.60;99.90
17795;DHT22;9021;50.882;4.326;2022-11-18T05:34:18;9.60;99.90
17795;DHT22;9021;50.882;4.326;2022-11-18T05:36:44;9.50;99.90
17795;DHT22;9021;50.882;4.326;2022-11-18T05:39:10;9.50;99.90
17795;DHT22;9021;50.882;4.326;2022-11-18T05:41:35;9.60;99.90
17795;DHT22;9021;50.882;4.326;2022-11-18T05:44:20;9.50;99.90
17795;DHT22;9021;50.882;4.326;2022-11-18T05:46:45;9.50;99.90
17795;DHT22;9021;50.882;4.326;2022-11-18T05:49:11;9.40;99.90
17795;DHT22;9021;50.882;4.326;2022-11-18T05:51:37;9.40;99.90
17795;DHT22;9021;50.882;4.326;2022-11-18T05:54:05;9.50;99.90
17795;DHT22;9021;50.882;4.326;2022-11-18T05:56:40;9.50;99.90
17795;DHT22;9021;50.882;4.326;2022-11-18T05:59:06;9.50;99.90
17795;DHT22;9021;50.882;4.326;2022-11-18T06:01:37;9.50;99.90
17795;DHT22;9021;50.882;4.326;2022-11-18T06:04:10;9.50;99.90
17795;DHT22;9021;50.882;4.326;2022-11-18T06:06:38;9.50;99.90
17795;DHT22;9021;50.882;4.326;2022-11-18T06:09:05;9.50;99.90
17795;DHT22;9021;50.882;4.326;2022-11-18T06:11:38;9.50;99.90
17795;DHT22;9021;50.882;4.326;2022-11-18T06:14:09;9.50;99.90
17795;DHT22;9021;50.882;4.326;2022-11-18T06:16:37;9.50;99.90
17795;DHT22;9021;50.882;4.326;2022-11-18T06:19:05;9.40;99.90
17795;DHT22;9021;50.882;4.326;2022-11-18T06:21:30;9.50;99.90
17795;DHT22;9021;50.882;4.326;2022-11-18T06:23:56;9.40;99.90
17795;DHT22;9021;50.882;4.326;2022-11-18T06:26:21;9.40;99.90
17795;DHT22;9021;50.882;4.326;2022-11-18T06:28:47;9.50;99.90
17795;DHT22;9021;50.882;4.326;2022-11-18T06:31:13;9.40;99.90
17795;DHT22;9021;50.882;4.326;2022-11-18T06:33:41;9.50;99.90
17795;DHT22;9021;50.882;4.326;2022-11-18T06:36:07;9.40;99.90
17795;DHT22;9021;50.882;4.326;2022-11-18T06:38:32;9.40;99.90
17795;DHT22;9021;50.882;4.326;2022-11-18T06:40:59;9.40;99.90
17795;DHT22;9021;50.882;4.326;2022-11-18T06:43:25;9.40;99.90
17795;DHT22;9021;50.882;4.326;2022-11-18T06:46:04;9.40;99.90
17795;DHT22;9021;50.882;4.326;2022-11-18T06:48:49;9.40;99.90
17795;DHT22;9021;50.882;4.326;2022-11-18T06:51:15;9.40;99.90
17795;DHT22;9021;50.882;4.326;2022-11-18T06:53:41;9.50;99.90
17795;DHT22;9021;50.882;4.326;2022-11-18T06:56:08;9.60;99.90
17795;DHT22;9021;50.882;4.326;2022-11-18T06:58:35;9.50;99.90
17795;DHT22;9021;50.882;4.326;2022-11-18T07:01:27;9.50;99.90
17795;DHT22;9021;50.882;4.326;2022-11-18T07:03:53;9.60;99.90
17795;DHT22;9021;50.882;4.326;2022-11-18T07:06:21;9.60;99.90
17795;DHT22;9021;50.882;4.326;2022-11-18T07:08:47;9.50;99.90
17795;DHT22;9021;50.882;4.326;2022-11-18T07:11:15;9.50;99.90
17795;DHT22;9021;50.882;4.326;2022-11-18T07:13:41;9.60;99.90
17795;DHT22;9021;50.882;4.326;2022-11-18T07:16:08;9.70;99.90
17795;DHT22;9021;50.882;4.326;2022-11-18T07:18:36;9.70;99.90
17795;DHT22;9021;50.882;4.326;2022-11-18T07:21:09;9.70;99.90
17795;DHT22;9021;50.882;4.326;2022-11-18T07:23:36;9.80;99.90
17795;DHT22;9021;50.882;4.326;2022-11-18T07:26:02;9.70;99.90
17795;DHT22;9021;50.882;4.326;2022-11-18T07:28:28;9.80;99.90
17795;DHT22;9021;50.882;4.326;2022-11-18T07:31:06;9.90;99.90
17795;DHT22;9021;50.882;4.326;2022-11-18T07:33:33;9.90;99.90
17795;DHT22;9021;50.882;4.326;2022-11-18T07:36:03;10.00;99.90
17795;DHT22;9021;50.882;4.326;2022-11-18T07:38:29;10.00;99.90
17795;DHT22;9021;50.882;4.326;2022-11-18T07:41:01;9.90;99.90
17795;DHT22;9021;50.882;4.326;2022-11-18T07:43:27;10.00;99.90
17795;DHT22;9021;50.882;4.326;2022-11-18T07:45:52;10.00;99.90
17795;DHT22;9021;50.882;4.326;2022-11-18T07:48:18;10.10;99.90
17795;DHT22;9021;50.882;4.326;2022-11-18T07:50:44;10.20;99.90
17795;DHT22;9021;50.882;4.326;2022-11-18T07:53:09;10.30;99.90
17795;DHT22;9021;50.882;4.326;2022-11-18T07:55:35;10.20;99.90
17795;DHT22;9021;50.882;4.326;2022-11-18T07:58:00;10.10;99.90
17795;DHT22;9021;50.882;4.326;2022-11-18T08:00:26;10.20;99.90
17795;DHT22;9021;50.882;4.326;2022-11-18T08:02:52;10.30;99.90
17795;DHT22;9021;50.882;4.326;2022-11-18T08:05:17;10.30;99.90
17795;DHT22;9021;50.882;4.326;2022-11-18T08:07:43;10.20;99.90
17795;DHT22;9021;50.882;4.326;2022-11-18T08:10:09;10.20;99.90
17795;DHT22;9021;50.882;4.326;2022-11-18T08:12:34;10.20;99.90
17795;DHT22;9021;50.882;4.326;2022-11-18T08:15:00;10.20;99.90
17795;DHT22;9021;50.882;4.326;2022-11-18T08:17:26;10.30;99.90
17795;DHT22;9021;50.882;4.326;2022-11-18T08:19:51;10.20;99.90
17795;DHT22;9021;50.882;4.326;2022-11-18T08:22:17;10.20;99.90
17795;DHT22;9021;50.882;4.326;2022-11-18T08:24:45;10.20;99.90
17795;DHT22;9021;50.882;4.326;2022-11-18T08:27:12;10.30;99.90
17795;DHT22;9021;50.882;4.326;2022-11-18T08:29:38;10.30;99.90
17795;DHT22;9021;50.882;4.326;2022-11-18T08:32:05;10.30;99.90
17795;DHT22;9021;50.882;4.326;2022-11-18T08:34:31;10.30;99.90
17795;DHT22;9021;50.882;4.326;2022-11-18T08:36:57;10.40;99.90
17795;DHT22;9021;50.882;4.326;2022-11-18T08:39:22;10.30;99.90
17795;DHT22;9021;50.882;4.326;2022-11-18T08:41:48;10.30;99.90
17795;DHT22;9021;50.882;4.326;2022-11-18T08:44:15;10.20;99.90
17795;DHT22;9021;50.882;4.326;2022-11-18T08:46:41;10.20;99.90
17795;DHT22;9021;50.882;4.326;2022-11-18T08:49:09;10.30;99.90
17795;DHT22;9021;50.882;4.326;2022-11-18T08:51:34;10.40;99.90
17795;DHT22;9021;50.882;4.326;2022-11-18T08:54:00;10.40;99.90
17795;DHT22;9021;50.882;4.326;2022-11-18T08:56:26;10.40;99.90
17795;DHT22;9021;50.882;4.326;2022-11-18T08:58:52;10.40;99.90
17795;DHT22;9021;50.882;4.326;2022-11-18T09:01:17;10.60;99.90
17795;DHT22;9021;50.882;4.326;2022-11-18T09:03:43;10.60;99.90
17795;DHT22;9021;50.882;4.326;2022-11-18T09:06:14;10.60;99.90
17795;DHT22;9021;50.882;4.326;2022-11-18T09:08:41;10.50;99.90
17795;DHT22;9021;50.882;4.326;2022-11-18T09:11:18;10.60;99.90
17795;DHT22;9021;50.882;4.326;2022-11-18T09:13:44;10.60;99.90
17795;DHT22;9021;50.882;4.326;2022-11-18T09:16:12;10.80;99.90
17795;DHT22;9021;50.882;4.326;2022-11-18T09:18:38;11.00;99.90
17795;DHT22;9021;50.882;4.326;2022-11-18T09:21:08;11.00;99.90
17795;DHT22;9021;50.882;4.326;2022-11-18T09:23:35;10.90;99.90
17795;DHT22;9021;50.882;4.326;2022-11-18T09:26:09;10.90;99.90
17795;DHT22;9021;50.882;4.326;2022-11-18T09:28:35;10.80;99.90
17795;DHT22;9021;50.882;4.326;2022-11-18T09:31:05;11.00;99.90
17795;DHT22;9021;50.882;4.326;2022-11-18T09:33:32;10.80;99.90
17795;DHT22;9021;50.882;4.326;2022-11-18T09:35:58;10.90;99.90
17795;DHT22;9021;50.882;4.326;2022-11-18T09:38:24;10.90;99.90
17795;DHT22;9021;50.882;4.326;2022-11-18T09:41:09;11.00;99.90
17795;DHT22;9021;50.882;4.326;2022-11-18T09:46:27;11.00;99.90
17795;DHT22;9021;50.882;4.326;2022-11-18T09:49:06;11.10;99.90
17795;DHT22;9021;50.882;4.326;2022-11-18T09:51:46;11.10;99.90
17795;DHT22;9021;50.882;4.326;2022-11-18T09:56:45;11.30;99.90
17795;DHT22;9021;50.882;4.326;2022-11-18T09:59:13;11.30;99.90
17795;DHT22;9021;50.882;4.326;2022-11-18T10:01:40;11.20;99.90
17795;DHT22;9021;50.882;4.326;2022-11-18T10:04:15;11.30;99.90
17795;DHT22;9021;50.882;4.326;2022-11-18T10:06:41;11.50;99.90
17795;DHT22;9021;50.882;4.326;2022-11-18T10:09:36;11.60;99.90
17795;DHT22;9021;50.882;4.326;2022-11-18T10:12:32;11.70;99.90
17795;DHT22;9021;50.882;4.326;2022-11-18T10:15:20;11.80;99.90
17795;DHT22;9021;50.882;4.326;2022-11-18T10:20:23;12.00;99.90
17795;DHT22;9021;50.882;4.326;2022-11-18T10:25:22;12.20;99.90
17795;DHT22;9021;50.882;4.326;2022-11-18T10:27:49;12.00;99.90
17795;DHT22;9021;50.882;4.326;2022-11-18T10:33:03;11.90;99.90
17795;DHT22;9021;50.882;4.326;2022-11-18T10:35:34;11.90;99.90
17795;DHT22;9021;50.882;4.326;2022-11-18T10:38:26;11.90;99.90
17795;DHT22;9021;50.882;4.326;2022-11-18T10:43:43;11.70;99.90
17795;DHT22;9021;50.882;4.326;2022-11-18T10:46:25;11.80;99.90
17795;DHT22;9021;50.882;4.326;2022-11-18T10:52:11;11.90;99.90
17795;DHT22;9021;50.882;4.326;2022-11-18T10:54:38;12.00;99.90
17795;DHT22;9021;50.882;4.326;2022-11-18T10:59:39;11.90;99.90
17795;DHT22;9021;50.882;4.326;2022-11-18T11:04:35;12.00;99.90
17795;DHT22;9021;50.882;4.326;2022-11-18T11:07:35;12.00;99.90
17795;DHT22;9021;50.882;4.326;2022-11-18T11:12:42;11.90;99.90
17795;DHT22;9021;50.882;4.326;2022-11-18T11:18:11;11.90;99.90
17795;DHT22;9021;50.882;4.326;2022-11-18T11:20:56;11.90;99.90
17795;DHT22;9021;50.882;4.326;2022-11-18T11:23:23;11.90;99.90
17795;DHT22;9021;50.882;4.326;2022-11-18T11:26:02;12.00;99.90
17795;DHT22;9021;50.882;4.326;2022-11-18T11:28:43;12.20;99.90
17795;DHT22;9021;50.882;4.326;2022-11-18T11:31:25;12.30;99.90
17795;DHT22;9021;50.882;4.326;2022-11-18T11:34:11;12.40;99.90
17795;DHT22;9021;50.882;4.326;2022-11-18T11:36:54;12.50;99.90
17795;DHT22;9021;50.882;4.326;2022-11-18T11:39:45;12.50;99.90
17795;DHT22;9021;50.882;4.326;2022-11-18T11:42:38;12.70;99.90
17795;DHT22;9021;50.882;4.326;2022-11-18T11:47:55;12.70;99.90
17795;DHT22;9021;50.882;4.326;2022-11-18T11:50:45;12.70;99.90
17795;DHT22;9021;50.882;4.326;2022-11-18T11:53:51;12.70;99.90
17795;DHT22;9021;50.882;4.326;2022-11-18T12:07:14;12.40;99.90
17795;DHT22;9021;50.882;4.326;2022-11-18T12:15:38;12.30;99.90
17795;DHT22;9021;50.882;4.326;2022-11-18T12:26:43;12.60;99.90
17795;DHT22;9021;50.882;4.326;2022-11-18T12:31:57;12.40;99.90
17795;DHT22;9021;50.882;4.326;2022-11-18T12:34:27;12.40;99.90
17795;DHT22;9021;50.882;4.326;2022-11-18T12:36:54;12.50;99.90
17795;DHT22;9021;50.882;4.326;2022-11-18T12:42:01;12.50;99.90
17795;DHT22;9021;50.882;4.326;2022-11-18T12:44:50;12.50;99.90
17795;DHT22;9021;50.882;4.326;2022-11-18T12:47:57;12.60;99.90
17795;DHT22;9021;50.882;4.326;2022-11-18T12:50:45;12.60;99.90
17795;DHT22;9021;50.882;4.326;2022-11-18T12:55:58;12.50;99.90
17795;DHT22;9021;50.882;4.326;2022-11-18T12:58:25;12.60;99.90
17795;DHT22;9021;50.882;4.326;2022-11-18T13:01:06;12.40;99.90
17795;DHT22;9021;50.882;4.326;2022-11-18T13:03:32;12.40;99.90
17795;DHT22;9021;50.882;4.326;2022-11-18T13:06:01;12.40;99.90
17795;DHT22;9021;50.882;4.326;2022-11-18T13:08:28;12.40;99.90
17795;DHT22;9021;50.882;4.326;2022-11-18T13:10:55;12.40;99.90
17795;DHT22;9021;50.882;4.326;2022-11-18T13:13:40;12.50;99.90
17795;DHT22;9021;50.882;4.326;2022-11-18T13:16:22;12.60;99.90
17795;DHT22;9021;50.882;4.326;2022-11-18T13:19:07;12.90;99.90
17795;DHT22;9021;50.882;4.326;2022-11-18T13:21:34;12.80;99.90
17795;DHT22;9021;50.882;4.326;2022-11-18T13:24:20;12.60;99.90
17795;DHT22;9021;50.882;4.326;2022-11-18T13:26:51;12.60;99.90
17795;DHT22;9021;50.882;4.326;2022-11-18T13:32:15;12.90;99.90
17795;DHT22;9021;50.882;4.326;2022-11-18T13:34:50;12.90;99.90
17795;DHT22;9021;50.882;4.326;2022-11-18T13:37:20;13.00;99.90
17795;DHT22;9021;50.882;4.326;2022-11-18T13:39:47;12.90;99.90
17795;DHT22;9021;50.882;4.326;2022-11-18T13:45:11;13.00;99.90
17795;DHT22;9021;50.882;4.326;2022-11-18T13:48:15;13.30;99.90
17795;DHT22;9021;50.882;4.326;2022-11-18T13:50:45;13.40;99.90
17795;DHT22;9021;50.882;4.326;2022-11-18T13:53:32;13.40;99.90
17795;DHT22;9021;50.882;4.326;2022-11-18T14:01:21;13.20;99.90
17795;DHT22;9021;50.882;4.326;2022-11-18T14:03:58;13.20;99.90
17795;DHT22;9021;50.882;4.326;2022-11-18T14:06:32;13.30;99.90
17795;DHT22;9021;50.882;4.326;2022-11-18T14:09:24;13.30;99.90
17795;DHT22;9021;50.882;4.326;2022-11-18T14:12:05;13.20;99.90
17795;DHT22;9021;50.882;4.326;2022-11-18T14:14:39;13.30;99.90
17795;DHT22;9021;50.882;4.326;2022-11-18T14:17:21;13.40;99.90
17795;DHT22;9021;50.882;4.326;2022-11-18T14:19:55;13.30;99.90
17795;DHT22;9021;50.882;4.326;2022-11-18T14:22:29;13.20;99.90
17795;DHT22;9021;50.882;4.326;2022-11-18T14:24:57;13.20;99.90
17795;DHT22;9021;50.882;4.326;2022-11-18T14:29:58;13.20;99.90
17795;DHT22;9021;50.882;4.326;2022-11-18T14:32:27;13.40;99.90
17795;DHT22;9021;50.882;4.326;2022-11-18T14:34:59;13.30;99.90
17795;DHT22;9021;50.882;4.326;2022-11-18T14:37:25;13.40;99.90
17795;DHT22;9021;50.882;4.326;2022-11-18T14:39:57;13.40;99.90
17795;DHT22;9021;50.882;4.326;2022-11-18T14:42:23;13.40;99.90
17795;DHT22;9021;50.882;4.326;2022-11-18T14:44:49;13.40;99.90
17795;DHT22;9021;50.882;4.326;2022-11-18T14:47:26;13.40;99.90
17795;DHT22;9021;50.882;4.326;2022-11-18T14:49:52;13.40;99.90
17795;DHT22;9021;50.882;4.326;2022-11-18T14:52:18;13.60;99.90
17795;DHT22;9021;50.882;4.326;2022-11-18T14:54:43;13.70;99.90
17795;DHT22;9021;50.882;4.326;2022-11-18T14:57:13;13.40;99.90
17795;DHT22;9021;50.882;4.326;2022-11-18T14:59:39;13.40;99.90
17795;DHT22;9021;50.882;4.326;2022-11-18T15:02:13;13.30;99.90
17795;DHT22;9021;50.882;4.326;2022-11-18T15:04:39;13.10;99.90
17795;DHT22;9021;50.882;4.326;2022-11-18T15:07:05;13.20;99.90
17795;DHT22;9021;50.882;4.326;2022-11-18T15:09:33;13.10;99.90
17795;DHT22;9021;50.882;4.326;2022-11-18T15:11:58;13.10;99.90
17795;DHT22;9021;50.882;4.326;2022-11-18T15:14:24;13.10;99.90
17795;DHT22;9021;50.882;4.326;2022-11-18T15:16:50;13.00;99.90
17795;DHT22;9021;50.882;4.326;2022-11-18T15:19:15;12.90;99.90
17795;DHT22;9021;50.882;4.326;2022-11-18T15:21:42;13.10;99.90
17795;DHT22;9021;50.882;4.326;2022-11-18T15:24:07;13.00;99.90
17795;DHT22;9021;50.882;4.326;2022-11-18T15:26:36;12.90;99.90
17795;DHT22;9021;50.882;4.326;2022-11-18T15:29:03;12.90;99.90
17795;DHT22;9021;50.882;4.326;2022-11-18T15:31:28;12.90;99.90
17795;DHT22;9021;50.882;4.326;2022-11-18T15:33:54;12.90;99.90
17795;DHT22;9021;50.882;4.326;2022-11-18T15:36:24;12.90;99.90
17795;DHT22;9021;50.882;4.326;2022-11-18T15:38:52;12.80;99.90
17795;DHT22;9021;50.882;4.326;2022-11-18T15:41:25;12.70;99.90
17795;DHT22;9021;50.882;4.326;2022-11-18T15:43:53;12.60;99.90
17795;DHT22;9021;50.882;4.326;2022-11-18T15:46:20;12.50;99.90
17795;DHT22;9021;50.882;4.326;2022-11-18T15:48:46;12.60;99.90
17795;DHT22;9021;50.882;4.326;2022-11-18T15:51:12;12.60;99.90
17795;DHT22;9021;50.882;4.326;2022-11-18T15:53:38;12.60;99.90
17795;DHT22;9021;50.882;4.326;2022-11-18T15:58:43;12.60;99.90
17795;DHT22;9021;50.882;4.326;2022-11-18T16:01:09;12.70;99.90
17795;DHT22;9021;50.882;4.326;2022-11-18T16:03:41;12.60;99.90
17795;DHT22;9021;50.882;4.326;2022-11-18T16:06:06;12.50;99.90
17795;DHT22;9021;50.882;4.326;2022-11-18T16:08:32;12.40;99.90
17795;DHT22;9021;50.882;4.326;2022-11-18T16:10:58;12.30;99.90
17795;DHT22;9021;50.882;4.326;2022-11-18T16:13:42;12.30;99.90
17795;DHT22;9021;50.882;4.326;2022-11-18T16:16:16;12.30;99.90
17795;DHT22;9021;50.882;4.326;2022-11-18T16:18:42;12.30;99.90
17795;DHT22;9021;50.882;4.326;2022-11-18T16:21:07;12.30;99.90
17795;DHT22;9021;50.882;4.326;2022-11-18T16:23:33;12.20;99.90
17795;DHT22;9021;50.882;4.326;2022-11-18T16:25:59;12.10;99.90
17795;DHT22;9021;50.882;4.326;2022-11-18T16:28:26;12.00;99.90
17795;DHT22;9021;50.882;4.326;2022-11-18T16:30:52;12.10;99.90
17795;DHT22;9021;50.882;4.326;2022-11-18T16:33:36;12.10;99.90
17795;DHT22;9021;50.882;4.326;2022-11-18T16:36:02;12.20;99.90
17795;DHT22;9021;50.882;4.326;2022-11-18T16:38:27;12.40;99.90
17795;DHT22;9021;50.882;4.326;2022-11-18T16:40:56;12.40;99.90
17795;DHT22;9021;50.882;4.326;2022-11-18T16:43:22;12.40;99.90
17795;DHT22;9021;50.882;4.326;2022-11-18T16:45:53;12.30;99.90
17795;DHT22;9021;50.882;4.326;2022-11-18T16:48:19;12.30;99.90
17795;DHT22;9021;50.882;4.326;2022-11-18T16:50:54;12.30;99.90
17795;DHT22;9021;50.882;4.326;2022-11-18T16:53:22;12.20;99.90
17795;DHT22;9021;50.882;4.326;2022-11-18T16:55:48;12.30;99.90
17795;DHT22;9021;50.882;4.326;2022-11-18T16:58:13;12.30;99.90
17795;DHT22;9021;50.882;4.326;2022-11-18T17:00:39;12.30;99.90
17795;DHT22;9021;50.882;4.326;2022-11-18T17:03:05;12.20;99.90
17795;DHT22;9021;50.882;4.326;2022-11-18T17:05:32;12.20;99.90
17795;DHT22;9021;50.882;4.326;2022-11-18T17:07:59;12.30;99.90
17795;DHT22;9021;50.882;4.326;2022-11-18T17:10:25;12.40;99.90
17795;DHT22;9021;50.882;4.326;2022-11-18T17:12:50;12.50;99.90
17795;DHT22;9021;50.882;4.326;2022-11-18T17:15:16;12.40;99.90
17795;DHT22;9021;50.882;4.326;2022-11-18T17:17:42;12.30;99.90
17795;DHT22;9021;50.882;4.326;2022-11-18T17:20:08;12.40;99.90
17795;DHT22;9021;50.882;4.326;2022-11-18T17:22:33;12.50;99.90
17795;DHT22;9021;50.882;4.326;2022-11-18T17:24:59;12.40;99.90
17795;DHT22;9021;50.882;4.326;2022-11-18T17:27:25;12.20;99.90
17795;DHT22;9021;50.882;4.326;2022-11-18T17:29:50;12.10;99.90
17795;DHT22;9021;50.882;4.326;2022-11-18T17:32:16;12.10;99.90
17795;DHT22;9021;50.882;4.326;2022-11-18T17:34:42;12.10;99.90
17795;DHT22;9021;50.882;4.326;2022-11-18T17:37:08;12.10;99.90
17795;DHT22;9021;50.882;4.326;2022-11-18T17:39:33;12.10;99.90
17795;DHT22;9021;50.882;4.326;2022-11-18T17:41:59;12.10;99.90
17795;DHT22;9021;50.882;4.326;2022-11-18T17:44:42;12.20;99.90
17795;DHT22;9021;50.882;4.326;2022-11-18T17:47:08;12.20;99.90
17795;DHT22;9021;50.882;4.326;2022-11-18T17:49:34;12.10;99.90